Time;durP1;ratioP1;P1;durP2;ratioP2;P2;SDS_P1;SDS_P2;PMS_P1;PMS_P2;Temp;Humidity;BMP_temperature;BMP_pressure;BME280_temperature;BME280_humidity;BME280_pressure;Samples;Min_cycle;Max_cycle;Signal;HPM_P1;HPM_P2
2022/05/18 00:02:04;;;;;;;5.35;2.60;;;;;;;19.14;88.61;100907.91;8342919;28;20113;-63
2022/05/18 00:06:05;;;;;;;7.40;2.75;;;;;;;19.06;88.90;100921.66;8360606;28;20045;-63
2022/05/18 00:10:07;;;;;;;6.05;2.55;;;;;;;18.95;89.41;100911.16;8365113;28;20044;-63
2022/05/18 00:14:07;;;;;;;3.90;3.13;;;;;;;18.83;89.95;100917.25;8363267;28;20021;-63
2022/05/18 00:18:08;;;;;;;6.18;2.60;;;;;;;18.72;90.51;100923.16;8349164;28;20037;-63
2022/05/18 00:22:09;;;;;;;7.18;2.72;;;;;;;18.69;90.26;100921.66;8347581;28;20095;-63
2022/05/18 00:26:09;;;;;;;8.02;3.20;;;;;;;18.60;90.70;100930.97;8366622;28;20137;-63
2022/05/18 00:30:12;;;;;;;4.22;2.70;;;;;;;18.55;90.83;100927.06;8348196;28;20041;-63
2022/05/18 00:34:14;;;;;;;3.85;2.78;;;;;;;18.46;91.31;100944.59;8357823;28;20072;-63
2022/05/18 00:38:15;;;;;;;5.70;3.10;;;;;;;18.38;91.66;100941.88;8392769;28;20039;-64
2022/05/18 00:42:19;;;;;;;5.78;3.58;;;;;;;18.31;92.13;100949.09;8363597;28;20041;-63
2022/05/18 00:46:19;;;;;;;5.10;3.47;;;;;;;18.23;92.57;100940.91;8346049;28;20037;-63
2022/05/18 00:50:26;;;;;;;5.50;3.10;;;;;;;18.18;92.35;100941.47;8375567;28;20111;-63
2022/05/18 00:54:31;;;;;;;5.47;3.25;;;;;;;18.19;92.13;100943.16;8395910;28;20063;-63
2022/05/18 00:58:40;;;;;;;6.03;3.20;;;;;;;18.11;92.24;100951.41;8351465;28;20042;-63
2022/05/18 01:02:47;;;;;;;3.75;2.80;;;;;;;18.08;92.53;100951.75;8351182;28;20033;-63
2022/05/18 01:06:54;;;;;;;6.03;2.90;;;;;;;18.04;92.69;100955.03;8382059;28;20037;-63
2022/05/18 01:10:55;;;;;;;7.47;3.33;;;;;;;18.00;92.84;100954.56;8381480;28;20037;-62
2022/05/18 01:15:00;;;;;;;6.53;2.80;;;;;;;17.98;92.73;100955.75;8356030;28;20045;-62
2022/05/18 01:19:00;;;;;;;5.32;2.90;;;;;;;17.94;92.92;100958.00;8339003;28;20275;-62
2022/05/18 01:23:27;;;;;;;4.72;3.22;;;;;;;17.87;93.08;100954.25;8416584;28;20087;-62
2022/05/18 01:27:27;;;;;;;5.22;3.38;;;;;;;17.82;93.25;100961.28;8397897;28;20032;-62
2022/05/18 01:31:56;;;;;;;5.63;3.05;;;;;;;17.67;93.60;100958.44;8398178;28;20029;-62
2022/05/18 01:35:57;;;;;;;7.65;3.30;;;;;;;17.57;94.17;100958.63;8390326;28;20033;-62
2022/05/18 01:40:02;;;;;;;5.63;2.97;;;;;;;17.45;94.73;100953.72;8381241;28;20063;-62
2022/05/18 01:44:03;;;;;;;7.93;3.28;;;;;;;17.45;94.41;100959.19;8382344;28;20033;-62
2022/05/18 01:48:12;;;;;;;5.57;3.17;;;;;;;17.50;93.95;100964.97;8380413;28;20040;-62
2022/05/18 01:52:13;;;;;;;7.82;3.30;;;;;;;17.46;93.78;100960.88;8370570;28;20476;-62
2022/05/18 01:56:14;;;;;;;3.72;3.17;;;;;;;17.39;93.70;100957.09;8369504;28;20033;-62
2022/05/18 02:00:15;;;;;;;4.00;3.10;;;;;;;17.40;93.54;100956.06;8380052;28;20040;-62
2022/05/18 02:04:16;;;;;;;7.30;3.78;;;;;;;17.46;92.86;100966.34;8359696;28;20803;-62
2022/05/18 02:08:16;;;;;;;10.00;3.47;;;;;;;17.45;92.62;100970.13;8346933;28;20387;-62
2022/05/18 02:12:17;;;;;;;7.72;2.97;;;;;;;17.39;92.78;100968.03;8353518;28;20543;-62
2022/05/18 02:16:18;;;;;;;6.88;3.75;;;;;;;17.31;93.20;100960.72;8376952;28;20051;-62
2022/05/18 02:20:20;;;;;;;9.55;3.13;;;;;;;17.22;93.67;100964.47;8342796;28;20057;-62
2022/05/18 02:24:20;;;;;;;4.97;3.50;;;;;;;17.14;93.84;100958.16;8375329;28;20083;-62
2022/05/18 02:28:20;;;;;;;6.72;3.35;;;;;;;17.20;93.33;100963.78;8375121;28;20097;-62
2022/05/18 02:32:22;;;;;;;7.77;3.83;;;;;;;17.19;93.38;100953.03;8376625;28;20086;-62
2022/05/18 02:36:23;;;;;;;8.15;2.95;;;;;;;17.11;93.90;100953.06;8376269;28;20695;-62
2022/05/18 02:40:23;;;;;;;6.93;3.63;;;;;;;17.13;93.81;100954.56;8377388;28;20033;-62
2022/05/18 02:44:23;;;;;;;7.55;3.40;;;;;;;17.16;93.43;100950.63;8376334;28;20120;-62
2022/05/18 02:48:24;;;;;;;5.88;3.45;;;;;;;17.22;92.45;100959.00;8377739;28;20033;-62
2022/05/18 02:52:24;;;;;;;4.47;2.93;;;;;;;17.34;91.38;100956.75;8344356;28;20057;-62
2022/05/18 02:56:26;;;;;;;5.95;3.40;;;;;;;17.36;90.88;100955.56;8358954;28;20278;-62
2022/05/18 03:00:27;;;;;;;7.05;3.85;;;;;;;17.18;91.63;100954.06;8350456;28;20072;-62
2022/05/18 03:04:30;;;;;;;8.00;3.80;;;;;;;16.98;93.19;100956.28;8355946;28;20039;-62
2022/05/18 03:08:32;;;;;;;6.57;3.58;;;;;;;16.92;93.61;100956.97;8377332;28;20101;-62
2022/05/18 03:12:32;;;;;;;7.13;3.47;;;;;;;16.81;94.84;100959.19;8368181;28;20052;-62
2022/05/18 03:16:33;;;;;;;10.52;3.78;;;;;;;16.82;94.80;100955.44;8344055;28;20033;-62
2022/05/18 03:24:54;;;;;;;4.97;3.30;;;;;;;16.86;93.89;100959.50;8377285;28;20435;-62
2022/05/18 03:28:55;;;;;;;5.20;3.47;;;;;;;16.73;94.18;100964.63;8376299;28;20033;-62
2022/05/18 03:32:56;;;;;;;4.72;3.70;;;;;;;16.64;95.19;100968.38;8374920;28;20037;-62
2022/05/18 03:36:56;;;;;;;11.32;4.57;;;;;;;16.60;95.32;100964.28;8376567;28;20569;-62
2022/05/18 03:40:57;;;;;;;8.55;3.70;;;;;;;16.50;96.05;100971.78;8373103;28;20116;-62
2022/05/18 03:44:57;;;;;;;4.90;3.63;;;;;;;16.54;96.15;100978.59;8364314;28;20032;-62
2022/05/18 03:48:59;;;;;;;6.63;3.95;;;;;;;16.45;96.66;100985.94;8353544;28;20084;-62
2022/05/18 03:53:00;;;;;;;8.40;4.00;;;;;;;16.48;96.66;100990.19;8393661;28;20056;-62
2022/05/18 03:57:00;;;;;;;9.38;4.78;;;;;;;16.50;96.39;100988.16;8375113;28;20033;-62
2022/05/18 04:01:08;;;;;;;8.48;4.38;;;;;;;16.50;96.52;100989.00;8368074;28;20037;-62
2022/05/18 04:05:10;;;;;;;7.15;4.43;;;;;;;16.59;96.14;100978.97;8366323;28;20090;-62
2022/05/18 04:09:10;;;;;;;10.32;4.10;;;;;;;16.74;95.35;100985.47;8378283;28;20083;-62
2022/05/18 04:13:13;;;;;;;8.40;4.25;;;;;;;16.88;94.64;100993.84;8374727;28;20096;-62
2022/05/18 04:17:13;;;;;;;8.90;4.25;;;;;;;17.07;93.25;100992.66;8373915;28;20057;-62
2022/05/18 04:21:13;;;;;;;16.90;4.43;;;;;;;17.21;92.44;101000.16;8398071;28;20044;-62
2022/05/18 04:25:19;;;;;;;13.80;4.55;;;;;;;17.35;91.64;101007.66;8409956;28;20116;-62
2022/05/18 04:29:19;;;;;;;10.02;3.63;;;;;;;17.43;90.91;101010.44;8405461;28;20029;-62
2022/05/18 04:33:22;;;;;;;18.40;4.30;;;;;;;17.61;90.26;101008.34;8363363;28;20029;-62
2022/05/18 04:37:22;;;;;;;11.20;4.28;;;;;;;17.70;89.81;101007.31;8333318;28;20679;-62
2022/05/18 04:41:22;;;;;;;10.38;4.20;;;;;;;17.73;90.10;101011.56;8357620;28;20071;-62
2022/05/18 04:45:23;;;;;;;9.40;4.15;;;;;;;17.88;89.57;101010.69;8375118;28;20418;-62
2022/05/18 04:49:25;;;;;;;10.30;3.90;;;;;;;17.99;88.46;101012.19;8350876;28;20420;-62
2022/05/18 04:53:26;;;;;;;9.80;3.33;;;;;;;18.11;87.87;101029.94;8416144;28;20035;-62
2022/05/18 04:57:26;;;;;;;5.43;3.17;;;;;;;18.42;86.44;101028.97;8393247;28;20043;-62
2022/05/18 05:01:30;;;;;;;7.13;3.20;;;;;;;18.67;85.57;101030.53;8370682;28;20080;-62
2022/05/18 05:05:30;;;;;;;5.35;3.03;;;;;;;18.82;85.08;101030.63;8360297;28;20406;-63
2022/05/18 05:09:31;;;;;;;11.27;4.10;;;;;;;18.92;84.86;101037.59;8333644;28;20060;-62
2022/05/18 05:13:33;;;;;;;14.73;3.90;;;;;;;18.89;85.00;101046.19;8353132;28;20091;-63
2022/05/18 05:17:34;;;;;;;14.52;3.47;;;;;;;18.93;85.65;101053.00;8348128;28;20052;-63
2022/05/18 05:21:35;;;;;;;12.10;3.58;;;;;;;19.15;85.08;101052.13;8370591;28;20058;-63
2022/05/18 05:25:36;;;;;;;8.55;2.92;;;;;;;19.29;84.64;101058.75;8360953;28;20049;-63
2022/05/18 05:29:36;;;;;;;3.72;3.30;;;;;;;19.43;84.34;101067.03;8358205;28;20413;-63
2022/05/18 05:33:39;;;;;;;5.53;3.20;;;;;;;19.77;83.86;101052.84;8358130;28;20401;-61
2022/05/18 05:37:40;;;;;;;6.32;3.00;;;;;;;19.98;82.68;101052.09;8373945;28;20072;-63
2022/05/18 05:41:42;;;;;;;5.93;3.50;;;;;;;20.13;82.09;101058.50;8356812;28;20698;-63
2022/05/18 05:45:42;;;;;;;8.30;3.22;;;;;;;20.37;81.01;101061.78;8344651;28;20061;-63
2022/05/18 05:49:43;;;;;;;5.40;3.17;;;;;;;20.56;79.90;101060.34;8388088;28;20043;-63
2022/05/18 05:53:45;;;;;;;8.60;3.60;;;;;;;20.78;79.55;101054.72;8410118;28;20044;-63
2022/05/18 05:57:45;;;;;;;7.95;3.58;;;;;;;21.03;78.48;101058.00;8391951;28;20037;-63
2022/05/18 06:01:45;;;;;;;6.03;2.90;;;;;;;21.18;77.61;101056.03;8378486;28;20041;-63
2022/05/18 06:05:46;;;;;;;6.53;3.45;;;;;;;21.41;77.51;101051.19;8377713;28;20330;-63
2022/05/18 06:09:46;;;;;;;5.97;3.13;;;;;;;21.49;76.79;101053.78;8378223;28;20045;-63
2022/05/18 06:13:47;;;;;;;5.80;2.60;;;;;;;21.45;76.89;101065.38;8377355;28;20048;-63
2022/05/18 06:17:47;;;;;;;7.57;3.08;;;;;;;21.44;76.73;101067.31;8377709;28;20605;-63
2022/05/18 06:21:49;;;;;;;7.13;3.10;;;;;;;21.78;75.20;101070.19;8403973;28;20029;-63
2022/05/18 06:25:49;;;;;;;4.75;2.60;;;;;;;21.95;75.29;101066.06;8411127;28;20043;-63
2022/05/18 06:29:49;;;;;;;7.20;2.85;;;;;;;22.23;73.89;101074.31;8411484;28;20040;-63
2022/05/18 06:33:50;;;;;;;5.53;2.83;;;;;;;22.38;73.02;101066.78;8403024;28;20033;-63
2022/05/18 06:37:50;;;;;;;7.70;2.53;;;;;;;22.78;71.87;101061.25;8377419;28;20931;-63
2022/05/18 06:41:51;;;;;;;7.45;2.55;;;;;;;23.08;71.93;101070.91;8359204;28;20272;-63
2022/05/18 06:45:51;;;;;;;3.93;2.33;;;;;;;23.30;69.24;101073.53;8382696;28;20060;-64
2022/05/18 06:49:52;;;;;;;10.23;2.57;;;;;;;23.31;69.94;101075.22;8383440;28;20608;-64
2022/05/18 06:53:54;;;;;;;3.63;2.03;;;;;;;23.21;68.81;101070.94;8401233;28;20263;-64
2022/05/18 06:57:54;;;;;;;4.63;2.60;;;;;;;23.51;69.25;101076.94;8401579;28;20113;-64
2022/05/18 07:01:54;;;;;;;3.77;2.07;;;;;;;23.73;68.07;101075.72;8383052;28;20045;-64
2022/05/18 07:05:55;;;;;;;3.78;2.20;;;;;;;24.21;67.79;101065.28;8377530;28;20135;-64
2022/05/18 07:09:55;;;;;;;6.03;1.95;;;;;;;24.21;66.92;101062.53;8368914;28;20413;-64
2022/05/18 07:13:58;;;;;;;4.35;1.83;;;;;;;24.20;66.94;101077.38;8368902;28;20032;-64
2022/05/18 07:17:59;;;;;;;2.70;1.80;;;;;;;24.39;65.72;101076.50;8398751;28;20466;-64
2022/05/18 07:21:59;;;;;;;5.53;2.30;;;;;;;24.58;66.52;101076.44;8385705;28;20043;-64
2022/05/18 07:26:00;;;;;;;5.70;2.17;;;;;;;24.48;65.30;101072.44;8399612;28;20036;-64
2022/05/18 07:30:02;;;;;;;2.80;1.75;;;;;;;24.53;65.08;101067.97;8402254;28;20697;-63
2022/05/18 07:34:03;;;;;;;6.90;1.83;;;;;;;24.79;65.42;101067.03;8393913;28;20341;-63
2022/05/18 07:38:04;;;;;;;4.20;1.60;;;;;;;25.26;63.40;101074.88;8369122;28;20041;-63
2022/05/18 07:42:05;;;;;;;6.82;2.10;;;;;;;25.27;62.73;101065.50;8369206;28;20279;-64
2022/05/18 07:46:08;;;;;;;3.58;1.52;;;;;;;25.34;62.84;101066.31;8367946;28;20045;-64
2022/05/18 07:50:09;;;;;;;8.75;1.90;;;;;;;25.63;62.54;101075.91;8379428;28;20036;-64
2022/05/18 07:54:12;;;;;;;8.90;1.77;;;;;;;25.71;61.81;101073.72;8363968;28;20033;-64
2022/05/18 07:58:15;;;;;;;4.72;1.73;;;;;;;25.95;60.96;101067.31;8401396;28;20118;-64
2022/05/18 08:02:16;;;;;;;3.92;1.77;;;;;;;26.04;61.17;101079.84;8399984;28;20079;-64
2022/05/18 08:06:16;;;;;;;3.47;1.40;;;;;;;25.99;60.60;101076.94;8379903;28;20048;-64
2022/05/18 08:15:10;;;;;;;4.28;1.88;;;;;;;26.18;61.40;101070.34;8374187;28;20052;-64
2022/05/18 08:19:00;;;;;;;6.07;1.80;;;;;;;26.02;61.13;101076.47;8375615;28;20037;-63
2022/05/18 08:23:01;;;;;;;1.98;1.40;;;;;;;26.44;60.72;101075.59;8356980;28;20033;-64
2022/05/18 08:27:03;;;;;;;4.32;1.90;;;;;;;26.88;59.88;101070.81;8374748;28;20033;-64
2022/05/18 08:31:04;;;;;;;3.78;1.67;;;;;;;26.80;61.20;101075.63;8355922;28;20043;-64
2022/05/18 08:35:05;;;;;;;3.60;1.55;;;;;;;26.76;61.73;101087.41;8357022;28;20033;-64
2022/05/18 08:39:05;;;;;;;4.60;1.95;;;;;;;27.09;60.12;101079.53;8375345;28;20072;-64
2022/05/18 08:43:09;;;;;;;2.95;1.92;;;;;;;27.09;59.76;101079.53;8373157;28;20060;-64
2022/05/18 08:47:40;;;;;;;4.70;1.63;;;;;;;27.39;60.15;101079.53;8356351;28;20045;-64
2022/05/18 08:56:24;;;;;;;4.22;1.77;;;;;;;27.76;58.53;101065.25;8417176;27;20402;-62
2022/05/18 09:00:34;;;;;;;4.45;1.65;;;;;;;27.44;58.68;101082.47;8446403;27;20048;-62
2022/05/18 09:04:58;;;;;;;8.20;2.35;;;;;;;27.62;58.76;101074.91;8406236;27;20040;-63
2022/05/18 09:10:16;;;;;;;3.10;1.63;;;;;;;27.55;59.00;101079.72;8411014;27;20036;-63
2022/05/18 09:13:29;;;;;;;4.28;1.90;;;;;;;27.71;57.90;101078.16;8396274;27;20041;-63
2022/05/18 09:22:33;;;;;;;4.93;1.55;;;;;;;28.13;57.80;101068.69;8366253;28;20405;-62
2022/05/18 09:26:51;;;;;;;2.92;1.55;;;;;;;28.10;57.39;101060.84;8367306;28;20129;-63
2022/05/18 09:31:12;;;;;;;3.97;1.40;;;;;;;28.08;56.60;101069.44;8383729;28;20055;-63
2022/05/18 09:35:46;;;;;;;4.60;1.67;;;;;;;28.64;56.36;101068.81;8347496;28;20714;-63
2022/05/18 09:39:54;;;;;;;6.82;1.85;;;;;;;29.01;55.49;101063.72;8332028;28;20062;-63
2022/05/18 09:44:07;;;;;;;5.57;1.90;;;;;;;29.01;55.88;101064.59;8333229;28;20533;-63
2022/05/18 09:48:15;;;;;;;4.20;1.42;;;;;;;29.02;54.37;101060.69;8331985;28;20097;-63
2022/05/18 09:52:24;;;;;;;4.03;1.67;;;;;;;30.09;53.56;101054.03;8362454;28;20068;-62
2022/05/18 09:56:30;;;;;;;4.57;1.70;;;;;;;31.38;51.57;101044.94;8370200;28;20049;-62
2022/05/18 10:00:34;;;;;;;8.73;1.70;;;;;;;32.57;48.32;101049.84;8370861;28;20037;-63
2022/05/18 10:07:27;;;;;;;;;;;;;;;34.37;44.32;101042.91;8356888;28;20052;-63
2022/05/18 10:08:56;;;;;;;3.25;1.55;;;;;;;33.03;44.63;101042.50;8333574;28;19917;-63
2022/05/18 10:13:03;;;;;;;4.05;1.33;;;;;;;33.49;45.78;101041.50;8339863;28;20061;-63
2022/05/18 10:17:08;;;;;;;3.28;1.20;;;;;;;34.25;43.14;101051.63;8342601;28;20079;-63
2022/05/18 10:21:14;;;;;;;3.97;1.08;;;;;;;34.58;41.14;101038.94;8322485;28;20072;-63
2022/05/18 10:29:38;;;;;;;3.65;1.20;;;;;;;34.88;41.49;101033.22;8374485;28;20388;-63
2022/05/18 10:33:41;;;;;;;1.75;1.02;;;;;;;34.51;40.45;101021.53;8375655;28;20041;-63
2022/05/18 10:37:41;;;;;;;5.50;1.20;;;;;;;34.67;40.69;101025.97;8374160;28;20032;-63
2022/05/18 10:41:45;;;;;;;6.47;1.40;;;;;;;34.57;41.76;101023.19;8375675;28;20263;-63
2022/05/18 10:45:54;;;;;;;3.97;1.42;;;;;;;35.77;39.47;101018.84;8375901;28;20029;-63
2022/05/18 10:54:27;;;;;;;1.58;1.00;;;;;;;35.25;39.87;101000.66;8377900;27;20403;-63
2022/05/18 10:58:51;;;;;;;3.03;1.30;;;;;;;35.11;40.55;101010.03;8352511;28;20041;-63
2022/05/18 11:03:16;;;;;;;3.90;1.20;;;;;;;34.61;40.86;101016.69;8370643;28;20037;-63
2022/05/18 11:07:21;;;;;;;2.67;1.30;;;;;;;35.83;38.51;101012.94;8348866;28;20040;-63
2022/05/18 11:16:04;;;;;;;4.07;1.40;;;;;;;36.12;39.22;100996.84;8435278;27;20385;-63
2022/05/18 11:29:01;;;;;;;2.55;1.20;;;;;;;35.85;37.43;100993.75;8439055;27;20360;-63
2022/05/18 11:33:29;;;;;;;3.60;1.15;;;;;;;35.30;39.71;100991.31;8402800;28;20045;-61
2022/05/18 11:42:02;;;;;;;3.08;1.20;;;;;;;35.03;38.49;100990.94;8428287;27;20872;-63
2022/05/18 11:46:30;;;;;;;2.60;1.23;;;;;;;35.30;37.54;100986.56;8447408;28;20046;-63
2022/05/18 12:00:03;;;;;;;7.22;1.08;;;;;;;34.38;38.36;100971.56;8418785;27;20488;-63
2022/05/18 12:09:08;;;;;;;3.30;1.42;;;;;;;31.80;42.64;100961.94;8330028;28;20459;-64
2022/05/18 12:13:37;;;;;;;3.33;1.10;;;;;;;31.32;42.99;100950.94;8333007;28;20065;-64
2022/05/18 12:21:58;;;;;;;1.70;0.93;;;;;;;30.97;44.12;100943.03;8380619;27;20430;-63
2022/05/18 12:25:58;;;;;;;4.50;1.30;;;;;;;30.74;43.95;100948.09;8369627;28;20069;-64
2022/05/18 12:30:05;;;;;;;5.63;1.50;;;;;;;30.66;44.34;100928.97;8369583;28;20041;-64
2022/05/18 12:34:19;;;;;;;3.38;1.13;;;;;;;30.81;43.98;100948.72;8359726;28;20100;-64
2022/05/18 12:38:25;;;;;;;3.80;1.20;;;;;;;30.93;43.45;100952.22;8336105;28;20053;-64
2022/05/18 12:42:29;;;;;;;3.60;1.55;;;;;;;31.05;43.63;100950.94;8336182;28;20046;-64
2022/05/18 12:46:37;;;;;;;4.00;1.42;;;;;;;31.15;44.15;100950.19;8334710;28;20092;-64
2022/05/18 12:51:13;;;;;;;2.05;1.20;;;;;;;30.92;43.58;100939.34;8334795;28;20041;-64
2022/05/18 12:55:38;;;;;;;4.55;1.30;;;;;;;31.00;44.17;100950.03;8332707;28;20040;-64
2022/05/18 13:00:18;;;;;;;1.48;1.20;;;;;;;30.83;43.96;100952.09;8334054;28;20502;-64
2022/05/18 13:04:40;;;;;;;2.50;1.10;;;;;;;31.15;43.84;100941.81;8366906;28;20037;-64
2022/05/18 13:08:54;;;;;;;2.92;0.93;;;;;;;31.23;43.12;100935.75;8371592;28;20048;-64
2022/05/18 13:13:00;;;;;;;3.97;1.33;;;;;;;31.26;43.96;100929.63;8334578;28;20034;-64
2022/05/18 13:17:17;;;;;;;3.78;1.08;;;;;;;31.08;44.57;100932.81;8335587;28;20121;-64
2022/05/18 13:21:26;;;;;;;4.40;1.30;;;;;;;31.03;44.17;100929.94;8356079;28;20041;-64
2022/05/18 13:25:31;;;;;;;2.35;1.38;;;;;;;31.03;44.34;100935.53;8366423;28;20048;-64
2022/05/18 13:29:32;;;;;;;3.28;1.45;;;;;;;31.40;43.99;100926.13;8363112;28;20037;-64
2022/05/18 13:33:46;;;;;;;6.28;1.58;;;;;;;31.29;42.65;100917.94;8345991;28;20040;-65
2022/05/18 13:42:22;;;;;;;3.30;1.50;;;;;;;30.99;43.86;100923.22;8347086;27;20450;-64
2022/05/18 13:46:24;;;;;;;3.35;1.65;;;;;;;30.95;45.47;100922.88;8365821;28;20076;-64
2022/05/18 13:50:30;;;;;;;4.53;1.40;;;;;;;31.13;43.65;100925.31;8338151;28;20041;-64
2022/05/18 13:54:36;;;;;;;4.13;1.70;;;;;;;30.78;44.63;100907.34;8367098;28;20041;-63
2022/05/18 13:58:41;;;;;;;9.05;1.40;;;;;;;30.85;45.66;100894.00;8337561;28;20432;-64
2022/05/18 14:02:42;;;;;;;3.50;1.75;;;;;;;31.02;44.75;100911.50;8335173;28;20037;-64
2022/05/18 14:06:47;;;;;;;3.97;1.70;;;;;;;31.28;44.84;100902.25;8335838;28;20033;-64
2022/05/18 14:10:48;;;;;;;4.40;1.40;;;;;;;31.16;44.69;100896.84;8332180;28;20727;-64
2022/05/18 14:14:52;;;;;;;3.70;1.50;;;;;;;30.94;44.66;100898.00;8362977;28;20044;-64
2022/05/18 14:18:56;;;;;;;2.40;1.50;;;;;;;30.88;44.55;100897.13;8349599;28;20065;-64
2022/05/18 14:23:00;;;;;;;2.42;1.30;;;;;;;31.14;43.98;100898.22;8356247;28;20044;-64
2022/05/18 14:27:08;;;;;;;3.97;1.42;;;;;;;31.18;44.65;100888.19;8368848;28;20040;-64
2022/05/18 14:31:11;;;;;;;3.88;1.35;;;;;;;31.22;43.72;100883.75;8366071;28;20037;-64
2022/05/18 14:35:15;;;;;;;1.40;1.15;;;;;;;31.12;44.66;100873.34;8365104;28;20033;-64
2022/05/18 14:39:24;;;;;;;2.83;1.30;;;;;;;30.92;45.07;100881.53;8355640;28;20479;-64
2022/05/18 14:43:29;;;;;;;4.72;1.65;;;;;;;30.94;46.14;100876.53;8345948;28;20119;-64
2022/05/18 14:47:43;;;;;;;3.75;1.70;;;;;;;30.68;45.29;100876.50;8356614;28;20038;-64
2022/05/18 14:51:54;;;;;;;3.15;1.52;;;;;;;30.80;45.78;100869.69;8361775;28;20037;-64
2022/05/18 14:56:08;;;;;;;4.15;1.70;;;;;;;30.88;47.06;100866.41;8328543;28;20569;-65
2022/05/18 15:00:15;;;;;;;6.90;1.70;;;;;;;30.85;47.35;100877.25;8302189;28;20038;-65
2022/05/18 15:04:22;;;;;;;2.28;1.52;;;;;;;30.99;47.06;100870.13;8321738;28;20042;-65
2022/05/18 15:08:32;;;;;;;2.88;1.67;;;;;;;30.79;45.98;100865.19;8340180;28;20509;-65
2022/05/18 15:12:40;;;;;;;2.88;1.50;;;;;;;31.05;45.42;100860.69;8332725;28;20042;-65
2022/05/18 15:16:45;;;;;;;3.45;1.50;;;;;;;30.94;46.41;100867.28;8334385;28;20047;-65
2022/05/18 15:20:45;;;;;;;3.35;1.40;;;;;;;30.97;45.84;100858.38;8332196;28;20034;-65
2022/05/18 15:24:46;;;;;;;2.60;1.30;;;;;;;30.96;47.20;100856.69;8352358;28;20037;-65
2022/05/18 15:28:55;;;;;;;3.07;1.47;;;;;;;30.71;46.36;100862.03;8321569;28;20030;-65
2022/05/18 15:32:55;;;;;;;6.35;1.45;;;;;;;30.52;47.16;100861.53;8330671;28;20303;-65
2022/05/18 15:36:56;;;;;;;5.13;1.63;;;;;;;30.65;46.68;100871.44;8333776;28;20076;-65
2022/05/18 15:40:57;;;;;;;6.85;1.70;;;;;;;30.67;46.47;100855.28;8311923;28;20061;-65
2022/05/18 15:44:58;;;;;;;3.85;1.48;;;;;;;30.61;46.40;100853.56;8317115;28;20053;-65
2022/05/18 15:48:59;;;;;;;3.70;1.70;;;;;;;30.59;46.44;100855.75;8320059;28;20045;-65
2022/05/18 15:53:00;;;;;;;2.65;1.30;;;;;;;30.49;46.35;100855.66;8336654;28;20040;-65
2022/05/18 15:57:01;;;;;;;2.45;1.65;;;;;;;30.35;47.35;100856.03;8396304;28;20048;-65
2022/05/18 16:01:02;;;;;;;6.13;1.60;;;;;;;30.32;48.39;100855.75;8402290;28;20040;-65
2022/05/18 16:05:03;;;;;;;6.13;1.88;;;;;;;30.18;48.51;100865.56;8405646;28;20710;-65
2022/05/18 16:09:05;;;;;;;1.67;1.45;;;;;;;30.15;48.05;100853.00;8386069;28;20039;-65
2022/05/18 16:13:06;;;;;;;3.00;1.60;;;;;;;30.10;48.22;100847.34;8409229;28;20088;-65
2022/05/18 16:17:08;;;;;;;4.57;1.45;;;;;;;30.08;48.49;100848.72;8404734;28;20044;-65
2022/05/18 16:21:16;;;;;;;2.78;1.58;;;;;;;30.00;48.18;100844.44;8402832;28;20033;-65
2022/05/18 16:25:24;;;;;;;3.38;1.58;;;;;;;30.05;48.15;100849.22;8382868;28;20048;-65
2022/05/18 16:29:28;;;;;;;8.63;2.75;;;;;;;30.02;49.64;100845.03;8394802;28;20492;-65
2022/05/18 16:33:29;;;;;;;3.45;1.70;;;;;;;30.05;47.66;100843.66;8395095;28;20036;-65
2022/05/18 16:37:30;;;;;;;3.72;1.67;;;;;;;30.03;48.28;100845.84;8387818;28;20036;-65
2022/05/18 16:41:38;;;;;;;5.10;1.23;;;;;;;29.93;48.01;100846.59;8386707;28;20056;-65
2022/05/18 16:45:38;;;;;;;5.30;1.45;;;;;;;29.99;48.22;100844.69;8406743;28;20270;-65
2022/05/18 16:49:38;;;;;;;4.37;1.60;;;;;;;29.90;47.62;100844.31;8405300;28;20056;-65
2022/05/18 16:53:39;;;;;;;4.83;1.87;;;;;;;29.88;47.99;100849.28;8406460;28;20278;-65
2022/05/18 16:57:40;;;;;;;4.47;1.80;;;;;;;29.74;48.81;100848.00;8380821;28;20440;-65
2022/05/18 17:01:44;;;;;;;7.18;1.75;;;;;;;29.57;47.91;100836.00;8389025;28;20083;-65
2022/05/18 17:06:17;;;;;;;2.95;1.70;;;;;;;29.48;48.18;100842.25;8395590;28;20033;-65
2022/05/18 17:10:05;;;;;;;2.85;1.48;;;;;;;29.49;47.76;100842.00;8403686;28;20041;-65
2022/05/18 17:14:12;;;;;;;5.60;1.67;;;;;;;29.34;48.08;100841.81;8384632;28;20059;-65
2022/05/18 17:18:13;;;;;;;2.00;1.52;;;;;;;29.28;48.41;100833.63;8403265;28;20044;-65
2022/05/18 17:22:13;;;;;;;7.40;5.20;;;;;;;29.30;49.31;100840.59;8384864;28;20327;-65
2022/05/18 17:26:19;;;;;;;2.33;1.30;;;;;;;29.31;47.87;100842.31;8399013;28;20040;-65
2022/05/18 17:30:20;;;;;;;4.65;1.40;;;;;;;29.31;48.20;100845.09;8386146;28;20081;-65
2022/05/18 17:34:22;;;;;;;1.98;1.20;;;;;;;29.34;48.36;100847.38;8382579;28;20048;-65
2022/05/18 17:38:22;;;;;;;4.28;1.40;;;;;;;29.33;48.54;100845.66;8416031;28;20083;-65
2022/05/18 17:42:23;;;;;;;3.20;1.35;;;;;;;29.36;47.89;100834.00;8387521;28;20025;-65
2022/05/18 17:46:23;;;;;;;3.05;1.50;;;;;;;29.29;48.19;100838.94;8398190;28;20044;-65
2022/05/18 17:50:24;;;;;;;4.90;1.73;;;;;;;29.22;49.22;100840.22;8385787;28;20040;-65
2022/05/18 17:54:25;;;;;;;3.88;1.52;;;;;;;29.08;49.77;100831.34;8390367;28;20508;-65
2022/05/18 17:58:25;;;;;;;3.47;1.30;;;;;;;29.01;48.97;100830.66;8391399;28;20512;-65
2022/05/18 18:02:37;;;;;;;6.78;1.70;;;;;;;28.89;49.90;100832.69;8383239;28;20044;-64
2022/05/18 18:06:37;;;;;;;4.85;2.15;;;;;;;28.91;49.25;100833.28;8398234;28;20032;-64
2022/05/18 18:10:38;;;;;;;4.13;2.00;;;;;;;28.74;50.52;100837.97;8398682;28;20052;-64
2022/05/18 18:14:38;;;;;;;5.78;1.67;;;;;;;28.64;50.12;100840.59;8394005;28;20283;-64
2022/05/18 18:18:44;;;;;;;1.98;1.33;;;;;;;28.48;50.99;100838.59;8416715;28;20460;-64
2022/05/18 18:22:47;;;;;;;2.17;1.58;;;;;;;28.42;50.29;100837.63;8401233;28;20288;-64
2022/05/18 18:26:48;;;;;;;3.95;1.77;;;;;;;28.31;50.92;100829.34;8403687;28;20056;-64
2022/05/18 18:30:48;;;;;;;4.32;2.50;;;;;;;28.19;50.76;100834.09;8406381;28;20039;-64
2022/05/18 18:34:48;;;;;;;3.13;1.70;;;;;;;28.04;51.82;100831.00;8389879;28;20059;-64
2022/05/18 18:38:49;;;;;;;2.53;1.47;;;;;;;28.08;51.39;100834.97;8407414;28;20041;-64
2022/05/18 18:42:50;;;;;;;3.05;1.63;;;;;;;28.06;50.84;100837.19;8392818;28;20713;-64
2022/05/18 18:46:50;;;;;;;5.13;2.08;;;;;;;27.91;53.38;100831.31;8392511;28;20452;-65
2022/05/18 18:55:14;;;;;;;5.20;2.00;;;;;;;27.45;55.62;100845.25;8397634;28;20098;-64
2022/05/18 18:59:15;;;;;;;4.57;2.30;;;;;;;27.16;56.74;100840.59;8408397;28;20036;-64
2022/05/18 19:03:16;;;;;;;5.65;2.15;;;;;;;26.97;57.75;100847.34;8404969;28;20056;-64
2022/05/18 19:07:17;;;;;;;3.30;1.92;;;;;;;26.83;58.27;100842.03;8410773;28;20032;-64
2022/05/18 19:11:19;;;;;;;4.45;1.90;;;;;;;26.70;58.23;100839.47;8405053;28;20037;-64
2022/05/18 19:15:22;;;;;;;3.45;2.05;;;;;;;26.90;56.98;100841.94;8362722;28;20032;-64
2022/05/18 19:19:22;;;;;;;2.25;1.95;;;;;;;26.28;58.61;100837.72;8377288;28;20460;-64
2022/05/18 19:23:29;;;;;;;3.63;1.73;;;;;;;26.11;59.46;100831.16;8384407;28;20055;-64
2022/05/18 19:27:30;;;;;;;4.20;1.80;;;;;;;26.03;59.63;100839.78;8398481;28;20862;-64
2022/05/18 19:31:31;;;;;;;4.07;1.70;;;;;;;25.82;59.88;100837.47;8399272;28;20048;-64
2022/05/18 19:35:31;;;;;;;3.83;1.80;;;;;;;26.04;57.26;100847.00;8401047;28;20036;-65
2022/05/18 19:39:32;;;;;;;4.47;2.00;;;;;;;26.19;56.55;100843.81;8395980;28;20298;-64
2022/05/18 19:43:34;;;;;;;4.22;1.70;;;;;;;25.94;57.26;100845.84;8389391;28;20040;-64
2022/05/18 19:47:35;;;;;;;3.28;1.80;;;;;;;25.60;59.05;100849.22;8402641;28;20055;-64
2022/05/18 19:51:36;;;;;;;3.67;2.22;;;;;;;25.59;58.42;100851.19;8395738;28;20048;-64
2022/05/18 19:55:38;;;;;;;4.03;2.20;;;;;;;25.70;57.61;100844.84;8384901;28;20514;-68
2022/05/18 19:59:39;;;;;;;5.35;1.98;;;;;;;25.55;58.14;100847.16;8403454;28;20522;-64
2022/05/18 20:03:41;;;;;;;8.13;2.42;;;;;;;25.46;58.41;100843.00;8415915;28;20445;-64
2022/05/18 20:07:41;;;;;;;4.15;2.10;;;;;;;25.27;59.21;100832.94;8395054;28;20064;-64